createdAt,value
2023-04-16T00:03:04.380Z,7.97
2023-04-16T00:07:11.346Z,8.15
2023-04-16T00:11:18.375Z,8.27
2023-04-16T00:15:25.021Z,8.18
2023-04-16T00:19:31.741Z,7.95
2023-04-16T00:23:38.496Z,8.98
2023-04-16T00:27:45.166Z,8.38
2023-04-16T00:31:52.037Z,10.00
2023-04-16T00:35:58.998Z,8.30
2023-04-16T00:40:06.452Z,9.65
2023-04-16T00:44:13.114Z,9.35
2023-04-16T00:48:21.759Z,9.23
2023-04-16T00:52:29.367Z,9.55
2023-04-16T00:56:36.693Z,9.93
2023-04-16T01:00:43.346Z,11.15
2023-04-16T01:04:50.321Z,10.77
2023-04-16T01:08:57.037Z,11.50
2023-04-16T01:13:03.687Z,12.20
2023-04-16T01:17:10.566Z,11.15
2023-04-16T01:21:17.223Z,11.18
2023-04-16T01:25:23.974Z,11.55
2023-04-16T01:29:30.772Z,13.00
2023-04-16T01:33:37.425Z,13.23
2023-04-16T01:37:44.772Z,12.18
2023-04-16T01:41:51.577Z,11.18
2023-04-16T01:46:31.154Z,13.20
2023-04-16T01:50:37.935Z,12.50
2023-04-16T01:54:44.584Z,11.75
2023-04-16T01:58:52.580Z,11.73
2023-04-16T02:02:59.516Z,12.40
2023-04-16T02:07:06.786Z,14.75
2023-04-16T02:11:13.608Z,15.02
2023-04-16T02:15:20.429Z,14.75
2023-04-16T02:19:27.518Z,14.45
2023-04-16T02:23:34.196Z,14.23
2023-04-16T02:27:40.993Z,15.43
2023-04-16T02:31:47.740Z,14.80
2023-04-16T02:35:54.429Z,14.82
2023-04-16T02:40:01.102Z,14.57
2023-04-16T02:44:07.748Z,16.17
2023-04-16T02:48:14.412Z,14.48
2023-04-16T02:52:21.056Z,16.58
2023-04-16T02:56:27.848Z,17.17
2023-04-16T03:00:34.480Z,15.23
2023-04-16T03:04:41.184Z,17.70
2023-04-16T03:08:47.866Z,17.83
2023-04-16T03:12:54.594Z,17.90
2023-04-16T03:17:01.399Z,18.35
2023-04-16T03:21:08.058Z,18.75
2023-04-16T03:25:14.789Z,17.92
2023-04-16T03:29:21.422Z,18.83
2023-04-16T03:33:28.092Z,18.08
2023-04-16T03:37:35.366Z,20.60
2023-04-16T03:41:42.006Z,19.95
2023-04-16T03:45:48.670Z,19.88
2023-04-16T03:49:55.418Z,19.60
2023-04-16T03:54:02.081Z,20.33
2023-04-16T03:58:08.770Z,21.42
2023-04-16T04:02:15.552Z,20.55
2023-04-16T04:06:22.414Z,20.27
2023-04-16T04:10:29.050Z,19.88
2023-04-16T04:14:39.726Z,19.95
2023-04-16T04:18:46.470Z,19.50
2023-04-16T04:22:53.116Z,20.75
2023-04-16T04:26:59.778Z,19.13
2023-04-16T04:31:06.501Z,20.35
2023-04-16T04:35:13.193Z,19.25
2023-04-16T04:39:21.648Z,18.60
2023-04-16T04:43:28.335Z,19.88
2023-04-16T04:47:35.031Z,21.75
2023-04-16T04:51:41.884Z,20.58
2023-04-16T04:55:52.274Z,21.20
2023-04-16T05:00:03.345Z,20.40
2023-04-16T05:04:10.054Z,19.25
2023-04-16T05:08:16.837Z,20.63
2023-04-16T05:12:23.584Z,20.67
2023-04-16T05:16:30.508Z,21.80
2023-04-16T05:20:37.840Z,20.42
2023-04-16T05:24:45.408Z,19.08
2023-04-16T05:28:52.100Z,19.75
2023-04-16T05:32:58.887Z,19.25
2023-04-16T05:37:05.538Z,19.05
2023-04-16T05:41:12.185Z,18.10
2023-04-16T05:45:18.865Z,17.17
2023-04-16T05:49:25.487Z,17.60
2023-04-16T05:53:32.130Z,17.65
2023-04-16T05:57:38.771Z,17.45
2023-04-16T06:01:45.642Z,18.48
2023-04-16T06:05:52.366Z,16.75
2023-04-16T06:09:59.020Z,19.02
2023-04-16T06:14:05.773Z,20.55
2023-04-16T06:18:12.526Z,20.20
2023-04-16T06:22:19.301Z,21.00
2023-04-16T06:26:26.663Z,20.88
2023-04-16T06:30:33.634Z,20.38
2023-04-16T06:34:40.641Z,20.60
2023-04-16T06:38:47.290Z,19.67
2023-04-16T06:42:54.264Z,21.45
2023-04-16T06:47:00.928Z,19.45
2023-04-16T06:51:07.651Z,20.33
2023-04-16T06:55:14.372Z,22.45
2023-04-16T06:59:21.010Z,17.73
2023-04-16T07:03:28.023Z,20.08
2023-04-16T07:07:35.619Z,20.10
2023-04-16T07:11:42.415Z,21.70
2023-04-16T07:15:49.055Z,21.40
2023-04-16T07:19:55.733Z,19.80
2023-04-16T07:24:03.136Z,19.92
2023-04-16T07:28:09.860Z,20.15
2023-04-16T07:32:16.859Z,19.33
2023-04-16T07:36:23.563Z,21.95
2023-04-16T07:40:30.267Z,20.38
2023-04-16T07:44:36.938Z,20.02
2023-04-16T07:48:43.660Z,20.08
2023-04-16T07:52:50.418Z,19.75
2023-04-16T07:56:57.081Z,20.73
2023-04-16T08:01:03.860Z,20.95
2023-04-16T08:05:11.233Z,20.75
2023-04-16T08:09:21.036Z,22.08
2023-04-16T08:13:27.774Z,20.20
2023-04-16T08:17:35.485Z,19.13
2023-04-16T08:21:42.296Z,20.65
2023-04-16T08:25:48.935Z,20.33
2023-04-16T08:29:55.752Z,19.90
2023-04-16T08:34:02.494Z,17.90
2023-04-16T08:38:09.298Z,18.80
2023-04-16T08:42:30.160Z,18.48
2023-04-16T08:46:38.188Z,19.83
2023-04-16T08:50:46.565Z,17.92
2023-04-16T08:55:04.059Z,18.63
2023-04-16T08:59:11.473Z,17.55
2023-04-16T09:03:21.610Z,17.67
2023-04-16T09:07:31.033Z,16.65
2023-04-16T09:11:39.388Z,18.02
2023-04-16T09:15:46.416Z,19.02
2023-04-16T09:19:54.248Z,16.88
2023-04-16T09:24:02.276Z,14.80
2023-04-16T09:28:10.414Z,16.05
2023-04-16T09:32:17.201Z,16.45
2023-04-16T09:36:23.935Z,14.43
2023-04-16T09:40:31.278Z,15.88
2023-04-16T09:44:38.926Z,15.93
2023-04-16T09:48:46.050Z,14.60
2023-04-16T09:52:52.749Z,14.95
2023-04-16T09:57:01.362Z,14.40
2023-04-16T10:01:13.017Z,13.70
2023-04-16T10:05:20.265Z,14.50
2023-04-16T10:09:31.443Z,13.13
2023-04-16T10:13:39.312Z,13.13
2023-04-16T10:17:46.446Z,13.07
2023-04-16T10:21:54.728Z,12.95
2023-04-16T10:26:02.152Z,14.60
2023-04-16T10:30:11.043Z,14.45
2023-04-16T10:34:19.567Z,14.85
2023-04-16T10:38:27.884Z,13.13
2023-04-16T10:42:34.597Z,11.80
2023-04-16T10:46:51.544Z,11.32
2023-04-16T10:50:58.728Z,12.27
2023-04-16T10:55:06.248Z,10.85
2023-04-16T10:59:13.692Z,13.40
2023-04-16T11:03:20.954Z,12.18
2023-04-16T11:07:35.109Z,13.73
2023-04-16T11:11:41.953Z,12.27
2023-04-16T11:15:48.771Z,14.07
2023-04-16T11:19:55.994Z,13.90
2023-04-16T11:24:02.725Z,13.13
2023-04-16T11:28:09.363Z,13.40
2023-04-16T11:32:22.780Z,14.30
2023-04-16T11:36:43.292Z,12.82
2023-04-16T11:40:51.523Z,13.93
2023-04-16T11:45:02.352Z,13.30
2023-04-16T11:49:09.556Z,12.77
2023-04-16T11:53:16.557Z,12.70
2023-04-16T11:57:31.058Z,12.10
2023-04-16T12:01:39.156Z,12.63
2023-04-16T12:05:46.036Z,11.93
2023-04-16T12:10:08.256Z,12.32
2023-04-16T12:18:26.201Z,12.20
2023-04-16T12:22:37.574Z,11.13
2023-04-16T12:26:52.340Z,13.25
2023-04-16T12:30:59.345Z,12.35
2023-04-16T12:35:06.376Z,11.18
2023-04-16T12:39:14.469Z,14.02
2023-04-16T12:43:21.559Z,11.75
2023-04-16T12:47:28.235Z,10.98
2023-04-16T12:51:35.862Z,12.75
2023-04-16T12:55:42.548Z,11.30
2023-04-16T12:59:49.165Z,15.98
2023-04-16T13:03:56.197Z,12.50
2023-04-16T13:08:02.971Z,10.65
2023-04-16T13:12:09.677Z,12.10
2023-04-16T13:16:16.459Z,11.45
2023-04-16T13:20:24.547Z,10.50
2023-04-16T13:24:31.326Z,11.95
2023-04-16T13:28:38.015Z,11.65
2023-04-16T13:32:44.755Z,10.57
2023-04-16T13:36:51.435Z,12.05
2023-04-16T13:40:58.116Z,10.25
2023-04-16T13:45:05.190Z,10.60
2023-04-16T13:49:11.964Z,10.25
2023-04-16T13:53:18.756Z,10.10
2023-04-16T13:57:26.251Z,10.27
2023-04-16T14:01:33.035Z,11.13
2023-04-16T14:05:41.037Z,10.70
2023-04-16T14:09:47.755Z,11.75
2023-04-16T14:13:54.749Z,10.88
2023-04-16T14:18:02.591Z,10.93
2023-04-16T14:22:09.564Z,11.30
2023-04-16T14:26:16.408Z,11.68
2023-04-16T14:30:23.128Z,10.07
2023-04-16T14:34:29.775Z,11.02
2023-04-16T14:38:36.468Z,9.95
2023-04-16T14:42:43.139Z,11.05
2023-04-16T14:46:49.843Z,9.75
2023-04-16T14:50:56.573Z,10.88
2023-04-16T14:55:03.344Z,9.93
2023-04-16T14:59:10.327Z,10.05
2023-04-16T15:03:17.391Z,9.43
2023-04-16T15:07:26.225Z,8.48
2023-04-16T15:11:32.914Z,9.60
2023-04-16T15:15:39.657Z,8.90
2023-04-16T15:19:46.399Z,9.25
2023-04-16T15:23:53.740Z,9.75
2023-04-16T15:28:02.488Z,11.18
2023-04-16T15:32:09.183Z,9.38
2023-04-16T15:36:16.329Z,9.10
2023-04-16T15:40:24.189Z,9.95
2023-04-16T15:44:31.418Z,8.23
2023-04-16T15:48:38.093Z,10.02
2023-04-16T15:52:48.406Z,9.30
2023-04-16T15:56:55.075Z,9.27
2023-04-16T16:01:02.474Z,10.82
2023-04-16T16:05:18.655Z,8.75
2023-04-16T16:09:28.083Z,8.40
2023-04-16T16:13:36.888Z,8.20
2023-04-16T16:17:43.611Z,10.05
2023-04-16T16:21:50.738Z,8.85
2023-04-16T16:25:57.611Z,10.18
2023-04-16T16:30:06.580Z,9.93
2023-04-16T16:34:20.354Z,9.25
2023-04-16T16:38:27.714Z,10.88
2023-04-16T16:42:34.580Z,9.55
2023-04-16T16:46:41.353Z,10.05
2023-04-16T16:50:48.115Z,11.90
2023-04-16T16:54:56.724Z,10.45
2023-04-16T16:59:03.897Z,10.20
2023-04-16T17:03:10.846Z,11.02
2023-04-16T17:07:17.697Z,10.18
2023-04-16T17:11:26.966Z,11.07
2023-04-16T17:15:33.803Z,11.18
2023-04-16T17:19:40.605Z,12.18
2023-04-16T17:23:47.247Z,11.25
2023-04-16T17:27:53.993Z,11.75
2023-04-16T17:32:00.964Z,11.88
2023-04-16T17:36:08.929Z,11.63
2023-04-16T17:40:18.157Z,11.40
2023-04-16T17:44:25.753Z,12.13
2023-04-16T17:48:32.443Z,11.77
2023-04-16T17:52:39.164Z,11.93
2023-04-16T17:56:46.228Z,12.40
2023-04-16T18:00:53.463Z,12.45
2023-04-16T18:05:00.434Z,13.57
2023-04-16T18:09:07.099Z,12.30
2023-04-16T18:13:13.845Z,12.23
2023-04-16T18:17:22.687Z,12.55
2023-04-16T18:21:30.349Z,12.10
2023-04-16T18:25:37.208Z,13.07
2023-04-16T18:29:45.271Z,13.18
2023-04-16T18:33:56.285Z,13.23
2023-04-16T18:42:10.970Z,13.20
2023-04-16T18:46:17.739Z,14.38
2023-04-16T18:50:25.730Z,14.98
2023-04-16T18:54:32.407Z,13.88
2023-04-16T18:58:39.093Z,15.50
2023-04-16T19:02:45.997Z,15.57
2023-04-16T19:06:52.866Z,18.48
2023-04-16T19:10:59.791Z,15.88
2023-04-16T19:15:06.919Z,17.00
2023-04-16T19:19:13.912Z,15.93
2023-04-16T19:23:21.127Z,15.02
2023-04-16T19:27:29.330Z,17.67
2023-04-16T19:31:36.194Z,16.70
2023-04-16T19:35:43.243Z,17.58
2023-04-16T19:39:49.940Z,17.73
2023-04-16T19:43:56.637Z,17.65
2023-04-16T19:48:03.501Z,17.42
2023-04-16T19:52:10.438Z,15.88
2023-04-16T19:56:17.566Z,16.73
2023-04-16T20:00:25.398Z,18.05
2023-04-16T20:04:32.129Z,18.30
2023-04-16T20:08:39.593Z,17.73
2023-04-16T20:12:46.354Z,19.38
2023-04-16T20:16:53.772Z,19.35
2023-04-16T20:21:04.306Z,17.30
2023-04-16T20:25:11.500Z,19.20
2023-04-16T20:29:18.355Z,18.10
2023-04-16T20:33:25.290Z,18.75
2023-04-16T20:37:32.521Z,17.90
2023-04-16T20:41:45.887Z,18.10
2023-04-16T20:45:52.675Z,19.75
2023-04-16T20:50:01.768Z,17.92
2023-04-16T20:54:10.131Z,17.63
2023-04-16T20:58:16.780Z,17.40
2023-04-16T21:02:24.317Z,19.17
2023-04-16T21:06:32.925Z,18.00
2023-04-16T21:10:40.774Z,18.38
2023-04-16T21:14:47.448Z,19.75
2023-04-16T21:18:54.344Z,18.73
2023-04-16T21:23:02.455Z,18.88
2023-04-16T21:27:09.456Z,18.25
2023-04-16T21:31:17.258Z,19.65
2023-04-16T21:35:24.408Z,19.27
2023-04-16T21:39:31.165Z,20.85
2023-04-16T21:43:37.869Z,18.80
2023-04-16T21:47:44.674Z,19.05
2023-04-16T21:51:58.891Z,20.73
2023-04-16T21:56:06.470Z,18.33
2023-04-16T22:00:13.902Z,18.35
2023-04-16T22:04:26.417Z,18.48
2023-04-16T22:12:40.028Z,18.50
2023-04-16T22:16:49.725Z,17.52
2023-04-16T22:20:56.597Z,18.17
2023-04-16T22:25:03.729Z,19.45
2023-04-16T22:29:10.753Z,18.75
2023-04-16T22:33:17.756Z,17.85
2023-04-16T22:37:24.782Z,20.77
2023-04-16T22:41:31.422Z,18.45
2023-04-16T22:45:38.132Z,18.90
2023-04-16T22:49:44.829Z,17.73
2023-04-16T22:53:51.984Z,18.73
2023-04-16T22:57:58.677Z,18.50
2023-04-16T23:02:05.408Z,18.60
2023-04-16T23:06:12.108Z,18.83
2023-04-16T23:10:20.867Z,17.77
2023-04-16T23:14:27.682Z,19.35
2023-04-16T23:18:34.597Z,17.95
2023-04-16T23:22:41.611Z,19.35
2023-04-16T23:26:48.310Z,17.77
2023-04-16T23:30:55.006Z,18.38
2023-04-16T23:35:01.856Z,17.58
2023-04-16T23:39:08.775Z,18.83
2023-04-16T23:43:15.639Z,17.05
2023-04-16T23:47:23.206Z,16.58
2023-04-16T23:51:29.902Z,16.02
2023-04-16T23:55:37.911Z,16.00
2023-04-16T23:59:44.542Z,15.90
